Time;durP1;ratioP1;P1;durP2;ratioP2;P2;SDS_P1;SDS_P2;PMS_P1;PMS_P2;Temp;Humidity;BMP_temperature;BMP_pressure;BME280_temperature;BME280_humidity;BME280_pressure;Samples;Min_cycle;Max_cycle;Signal;HPM_P1;HPM_P2
2022/06/16 00:01:01;;;;;;;27.33;25.75;;;;;;;22.93;38.56;96651.25;5071735;28;20223;-69
2022/06/16 00:03:26;;;;;;;22.83;21.45;;;;;;;22.84;39.01;96658.44;5072334;28;20186;-68
2022/06/16 00:05:53;;;;;;;19.42;18.33;;;;;;;22.78;39.91;96657.81;5071720;28;20235;-68
2022/06/16 00:08:19;;;;;;;28.67;27.10;;;;;;;22.73;39.62;96662.50;5072879;28;20201;-69
2022/06/16 00:13:36;;;;;;;170.00;161.40;;;;;;;22.72;40.35;96656.34;5075833;28;20584;-69
2022/06/16 00:16:02;;;;;;;297.67;283.10;;;;;;;22.61;40.79;96660.34;5075887;28;20244;-69
2022/06/16 00:18:29;;;;;;;431.48;409.20;;;;;;;22.59;41.07;96659.84;5075470;28;20173;-69
2022/06/16 00:20:54;;;;;;;467.13;442.45;;;;;;;22.56;41.50;96660.50;5076100;28;20204;-69
2022/06/16 00:23:20;;;;;;;505.65;479.02;;;;;;;22.60;41.28;96661.44;5075639;28;20189;-68
2022/06/16 00:25:46;;;;;;;518.97;491.48;;;;;;;22.60;41.18;96661.44;5058649;28;20205;-68
2022/06/16 00:28:11;;;;;;;500.65;474.23;;;;;;;22.68;40.81;96659.91;5074970;28;20604;-69
2022/06/16 00:30:37;;;;;;;502.75;475.98;;;;;;;22.64;40.75;96659.72;5075762;28;20593;-69
2022/06/16 00:33:03;;;;;;;502.55;475.40;;;;;;;22.64;40.16;96653.59;5075068;28;20181;-69
2022/06/16 00:35:28;;;;;;;516.47;488.92;;;;;;;22.70;40.46;96658.50;5075318;28;20190;-68
2022/06/16 00:37:54;;;;;;;518.33;490.67;;;;;;;22.68;40.99;96654.56;5075380;28;20713;-68
2022/06/16 00:40:19;;;;;;;507.83;480.65;;;;;;;22.71;40.58;96654.78;5075196;28;20185;-68
2022/06/16 00:42:45;;;;;;;471.23;446.33;;;;;;;22.65;40.84;96649.84;5074674;28;20191;-68
2022/06/16 00:45:42;;;;;;;400.70;379.67;;;;;;;22.57;41.33;96653.25;5075286;28;20177;-68
2022/06/16 00:48:12;;;;;;;365.33;346.23;;;;;;;22.57;40.79;96648.69;5058453;28;20219;-68
2022/06/16 00:50:40;;;;;;;408.20;386.63;;;;;;;22.59;40.60;96649.16;5074950;28;20268;-68
2022/06/16 00:53:05;;;;;;;303.30;287.70;;;;;;;22.33;41.50;96656.25;5074851;28;20259;-68
2022/06/16 00:55:31;;;;;;;265.35;251.75;;;;;;;22.47;41.55;96650.81;5075182;28;20642;-68
2022/06/16 00:57:56;;;;;;;208.13;197.45;;;;;;;22.37;41.31;96649.19;5074480;28;20178;-68
2022/06/16 01:04:51;;;;;;;241.82;229.35;;;;;;;22.12;41.82;96653.28;5055760;28;20236;-67
2022/06/16 01:06:15;;;;;;;232.18;220.23;;;;;;;22.05;41.26;96647.59;5074397;28;20277;-68
2022/06/16 01:08:41;;;;;;;319.15;301.98;;;;;;;22.06;41.27;96646.50;5074919;28;20187;-68
2022/06/16 01:13:41;;;;;;;291.38;276.17;;;;;;;21.87;41.69;96635.94;5056620;28;20186;-68
2022/06/16 01:14:05;;;;;;;121.88;115.40;;;;;;;21.72;42.08;96632.84;5073923;28;20206;-68
2022/06/16 01:16:41;;;;;;;56.08;53.13;;;;;;;21.57;42.83;96641.94;5074107;28;20169;-68
2022/06/16 01:19:26;;;;;;;32.88;31.02;;;;;;;21.42;43.34;96651.09;5072543;28;20196;-67
2022/06/16 01:22:01;;;;;;;35.47;33.58;;;;;;;21.44;43.10;96642.78;5074863;28;20177;-67
2022/06/16 01:24:59;;;;;;;42.22;39.80;;;;;;;21.37;43.25;96637.06;5072093;28;20653;-68
2022/06/16 01:27:36;;;;;;;42.60;40.00;;;;;;;21.34;43.53;96637.69;5074907;28;20199;-68
2022/06/16 01:30:06;;;;;;;50.47;47.67;;;;;;;21.21;43.79;96641.13;5074084;28;20189;-68
2022/06/16 01:32:37;;;;;;;60.92;57.65;;;;;;;21.07;44.25;96633.09;5074711;28;20243;-68
2022/06/16 01:35:12;;;;;;;68.00;64.15;;;;;;;21.07;44.39;96628.56;5073119;28;20662;-68
2022/06/16 01:38:11;;;;;;;91.63;86.80;;;;;;;21.07;44.64;96633.09;5074140;28;20181;-68
2022/06/16 01:40:46;;;;;;;60.15;56.90;;;;;;;21.04;45.47;96636.38;5074299;28;20197;-68
2022/06/16 01:43:32;;;;;;;66.82;63.05;;;;;;;20.80;46.54;96631.22;5074612;28;20189;-68
2022/06/16 01:46:31;;;;;;;315.65;298.35;;;;;;;20.80;46.79;96630.44;5074509;28;20185;-69
2022/06/16 01:49:09;;;;;;;745.97;700.00;;;;;;;20.72;47.26;96631.94;5070846;28;20201;-68
2022/06/16 01:51:52;;;;;;;738.22;693.70;;;;;;;20.71;48.11;96625.03;5074184;28;20181;-69
2022/06/16 01:54:23;;;;;;;186.02;176.07;;;;;;;20.73;48.79;96628.19;5074137;28;20225;-68
2022/06/16 01:56:57;;;;;;;294.85;279.58;;;;;;;20.41;50.22;96629.00;5058652;28;20173;-68
2022/06/16 01:59:28;;;;;;;439.48;417.70;;;;;;;20.23;51.66;96619.16;5074346;28;20597;-68
2022/06/16 02:01:59;;;;;;;351.73;334.08;;;;;;;20.06;52.54;96621.59;5055598;28;20239;-68
2022/06/16 02:04:33;;;;;;;132.48;125.32;;;;;;;20.01;52.53;96619.78;5074134;28;20192;-68
2022/06/16 02:07:04;;;;;;;364.77;344.27;;;;;;;20.02;52.97;96616.06;5073436;28;20541;-68
2022/06/16 02:09:37;;;;;;;230.52;218.25;;;;;;;20.32;53.06;96609.47;5073882;28;20188;-68
2022/06/16 02:12:07;;;;;;;132.77;125.63;;;;;;;20.26;53.86;96614.06;5074285;28;20180;-68
2022/06/16 02:14:38;;;;;;;419.40;395.45;;;;;;;19.93;55.16;96615.94;5073435;28;20213;-68
2022/06/16 02:17:04;;;;;;;588.53;553.97;;;;;;;19.82;55.57;96601.22;5073534;28;20260;-68
2022/06/16 02:19:31;;;;;;;474.75;447.88;;;;;;;20.05;54.88;96612.03;5073872;28;20280;-68
2022/06/16 02:21:56;;;;;;;403.63;381.55;;;;;;;20.20;54.84;96609.91;5073213;28;20547;-68
2022/06/16 02:24:25;;;;;;;218.27;206.95;;;;;;;19.71;57.21;96612.28;5071351;28;20192;-68
2022/06/16 02:26:54;;;;;;;129.85;122.68;;;;;;;19.61;57.71;96609.78;5073430;28;20192;-69
2022/06/16 02:29:30;;;;;;;374.05;352.65;;;;;;;19.57;58.13;96606.91;5073317;28;20185;-67
2022/06/16 02:32:04;;;;;;;389.30;366.00;;;;;;;19.57;58.35;96604.22;5072266;28;20169;-68
2022/06/16 02:34:38;;;;;;;75.15;71.05;;;;;;;19.42;59.16;96607.09;5072073;28;20704;-68
2022/06/16 02:37:18;;;;;;;123.65;116.93;;;;;;;19.49;58.97;96604.91;5073377;28;20208;-68
2022/06/16 02:40:14;;;;;;;199.95;189.13;;;;;;;19.32;59.30;96604.56;5072416;28;20233;-68
2022/06/16 02:42:46;;;;;;;152.32;143.90;;;;;;;19.24;59.74;96599.88;5072783;28;20630;-68
2022/06/16 02:45:28;;;;;;;97.75;92.38;;;;;;;19.22;59.68;96604.72;5073242;28;20192;-68
2022/06/16 02:48:08;;;;;;;289.17;274.13;;;;;;;19.23;59.78;96604.41;5072975;28;20185;-68
2022/06/16 02:50:42;;;;;;;190.38;180.43;;;;;;;19.22;60.17;96589.56;5055102;28;20196;-68
2022/06/16 02:54:07;;;;;;;72.22;68.10;;;;;;;18.97;60.80;96593.31;5072491;28;20208;-69
2022/06/16 02:56:41;;;;;;;128.30;121.35;;;;;;;18.93;61.42;96588.84;5047827;28;20288;-69
2022/06/16 02:59:13;;;;;;;385.75;363.80;;;;;;;18.92;61.39;96588.06;5073095;28;20181;-69
2022/06/16 03:01:39;;;;;;;523.00;492.20;;;;;;;19.05;60.75;96590.03;5072585;28;20181;-69
2022/06/16 03:04:10;;;;;;;473.42;445.42;;;;;;;18.89;61.38;96590.50;5072813;28;20189;-68
2022/06/16 03:06:35;;;;;;;439.02;413.65;;;;;;;19.44;58.93;96595.09;5072879;28;20185;-68
2022/06/16 03:09:02;;;;;;;342.33;322.60;;;;;;;19.42;58.96;96599.09;5072859;28;20196;-69
2022/06/16 03:11:28;;;;;;;262.90;248.18;;;;;;;19.52;58.50;96597.13;5072821;28;20193;-68
2022/06/16 03:13:54;;;;;;;289.50;273.02;;;;;;;19.18;59.31;96593.06;5071950;28;20212;-68
2022/06/16 03:16:21;;;;;;;176.82;167.18;;;;;;;19.08;59.57;96592.13;5072462;28;20193;-69
2022/06/16 03:18:46;;;;;;;198.60;187.73;;;;;;;19.18;58.99;96591.19;5072491;28;20192;-69
2022/06/16 03:21:11;;;;;;;349.95;330.65;;;;;;;19.36;57.94;96592.28;5072441;28;20185;-69
2022/06/16 03:23:37;;;;;;;385.58;364.95;;;;;;;19.23;58.00;96583.16;5070071;28;20267;-69
2022/06/16 03:26:03;;;;;;;264.02;249.82;;;;;;;19.42;56.72;96589.28;5072107;28;20189;-68
2022/06/16 03:28:29;;;;;;;496.17;468.65;;;;;;;19.50;57.33;96585.22;5072507;28;20182;-69
2022/06/16 03:30:55;;;;;;;108.25;102.53;;;;;;;19.45;59.01;96587.91;5072284;28;20203;-69
2022/06/16 03:33:20;;;;;;;356.98;338.40;;;;;;;19.11;60.62;96596.09;5071342;28;20217;-69
2022/06/16 03:35:46;;;;;;;450.45;427.02;;;;;;;18.93;61.39;96599.47;5072298;28;20189;-68
2022/06/16 03:38:40;;;;;;;515.92;488.77;;;;;;;19.01;61.00;96602.28;5071309;28;20377;-68
2022/06/16 03:40:59;;;;;;;389.83;368.65;;;;;;;19.07;59.80;96603.81;5071758;28;20552;-67
2022/06/16 03:43:25;;;;;;;373.65;353.98;;;;;;;19.20;59.00;96602.34;5071657;28;20276;-66
2022/06/16 03:45:50;;;;;;;244.00;231.55;;;;;;;19.55;58.18;96603.75;5054444;28;20527;-68
2022/06/16 03:48:16;;;;;;;135.63;128.55;;;;;;;19.60;57.72;96611.66;5072322;28;20644;-68
2022/06/16 03:50:41;;;;;;;124.32;117.55;;;;;;;20.00;56.36;96601.47;5072685;28;20540;-67
2022/06/16 03:53:07;;;;;;;106.40;100.65;;;;;;;20.20;54.24;96607.25;5071765;28;20200;-67
2022/06/16 03:55:32;;;;;;;127.05;120.45;;;;;;;20.31;54.32;96611.34;5072131;28;20290;-66
2022/06/16 03:57:58;;;;;;;233.77;221.15;;;;;;;20.45;54.80;96606.03;5072272;28;20181;-66
2022/06/16 04:00:24;;;;;;;77.60;73.38;;;;;;;20.18;54.70;96617.38;5071649;28;20189;-67
2022/06/16 04:03:59;;;;;;;68.50;64.72;;;;;;;20.28;54.95;96624.44;5071676;28;20221;-67
2022/06/16 04:05:36;;;;;;;193.80;183.77;;;;;;;20.53;56.13;96629.34;5071596;28;20191;-68
2022/06/16 04:08:02;;;;;;;179.45;169.95;;;;;;;20.93;55.07;96632.31;5072423;28;20876;-67
2022/06/16 04:10:28;;;;;;;97.28;91.93;;;;;;;20.32;55.65;96633.44;5072124;28;20193;-67
2022/06/16 04:12:54;;;;;;;398.90;375.30;;;;;;;20.34;54.40;96633.91;5071953;28;20182;-68
2022/06/16 04:15:19;;;;;;;553.17;519.03;;;;;;;20.89;50.21;96642.00;5072222;28;20564;-68
2022/06/16 04:17:44;;;;;;;500.35;470.17;;;;;;;21.23;49.54;96641.63;5072152;28;20181;-67
2022/06/16 04:20:13;;;;;;;361.35;340.15;;;;;;;21.64;48.22;96637.00;5072303;28;20275;-67
2022/06/16 04:22:39;;;;;;;269.35;253.75;;;;;;;21.46;47.28;96638.72;5070226;28;20200;-68
2022/06/16 04:25:08;;;;;;;336.73;318.98;;;;;;;21.35;46.81;96639.22;5072175;28;20243;-68
2022/06/16 04:27:33;;;;;;;291.70;276.63;;;;;;;21.58;46.24;96638.19;5071500;28;20200;-68
2022/06/16 04:29:59;;;;;;;252.70;240.15;;;;;;;21.39;46.34;96646.34;5071713;28;20524;-67
2022/06/16 04:32:24;;;;;;;236.50;224.73;;;;;;;21.36;45.95;96649.59;5071920;28;20634;-67
2022/06/16 04:34:50;;;;;;;185.63;176.55;;;;;;;21.33;46.28;96647.56;5070469;28;20215;-68
2022/06/16 04:37:15;;;;;;;214.10;203.05;;;;;;;21.87;45.59;96646.63;5071432;28;20189;-68
2022/06/16 04:39:41;;;;;;;164.63;156.18;;;;;;;21.93;44.71;96653.41;5071637;28;20224;-68
2022/06/16 04:42:06;;;;;;;404.13;383.00;;;;;;;21.79;44.54;96652.66;5070812;28;20193;-68
2022/06/16 04:44:33;;;;;;;475.60;450.88;;;;;;;21.69;44.72;96652.91;5071667;28;20653;-67
2022/06/16 04:47:01;;;;;;;217.30;206.25;;;;;;;21.17;46.22;96648.94;5071744;28;20181;-68
2022/06/16 04:49:28;;;;;;;123.47;117.20;;;;;;;21.14;46.48;96650.31;5071652;28;20177;-69
2022/06/16 04:51:53;;;;;;;134.88;127.93;;;;;;;20.79;46.87;96648.28;5071260;28;20544;-68
2022/06/16 04:54:19;;;;;;;171.93;162.85;;;;;;;20.73;47.12;96649.50;5053626;28;20223;-68
2022/06/16 04:56:44;;;;;;;191.52;181.98;;;;;;;21.01;47.05;96650.31;5074765;28;20316;-68
2022/06/16 04:59:10;;;;;;;183.27;174.00;;;;;;;20.95;46.51;96652.28;5075048;28;20540;-68
2022/06/16 05:01:35;;;;;;;197.50;187.35;;;;;;;21.26;45.64;96654.34;5074724;28;20258;-68
2022/06/16 05:04:01;;;;;;;197.77;187.60;;;;;;;21.19;45.72;96659.28;5074935;28;20709;-68
2022/06/16 05:06:26;;;;;;;215.40;204.48;;;;;;;21.32;45.75;96663.84;5074762;28;20584;-67
2022/06/16 05:08:51;;;;;;;216.90;206.10;;;;;;;21.09;46.50;96669.06;5074601;28;20189;-68
2022/06/16 05:11:17;;;;;;;193.40;183.50;;;;;;;21.22;46.49;96662.16;5075071;28;20221;-68
2022/06/16 05:13:42;;;;;;;166.32;158.05;;;;;;;21.77;45.27;96664.75;5074535;28;20208;-67
2022/06/16 05:16:07;;;;;;;67.57;64.03;;;;;;;21.84;47.76;96665.91;5071017;28;20235;-67
2022/06/16 05:18:33;;;;;;;83.80;79.22;;;;;;;21.26;50.33;96676.47;5072333;28;20185;-67
2022/06/16 05:21:14;;;;;;;69.97;66.18;;;;;;;20.81;50.42;96677.31;5074951;28;20177;-67
2022/06/16 05:23:40;;;;;;;97.18;91.93;;;;;;;21.40;48.98;96671.16;5073889;28;20284;-67
2022/06/16 05:26:07;;;;;;;104.47;99.00;;;;;;;21.64;48.55;96684.22;5074539;28;20195;-67
2022/06/16 05:28:33;;;;;;;89.78;85.18;;;;;;;22.31;48.01;96685.13;5074098;28;20589;-67
2022/06/16 05:30:58;;;;;;;134.07;127.13;;;;;;;21.67;52.40;96687.09;5074929;28;20188;-68
2022/06/16 05:33:24;;;;;;;113.80;107.93;;;;;;;21.91;52.20;96676.94;5055509;28;20579;-68
2022/06/16 05:36:01;;;;;;;68.75;64.95;;;;;;;22.74;49.58;96678.19;5074164;28;20654;-68
2022/06/16 05:38:27;;;;;;;70.28;66.53;;;;;;;22.43;48.77;96687.25;5074069;28;20771;-67
2022/06/16 05:41:06;;;;;;;170.95;162.48;;;;;;;22.88;46.35;96694.16;5074194;28;20182;-67
2022/06/16 05:43:31;;;;;;;132.40;125.78;;;;;;;23.75;47.20;96708.63;5073757;28;20185;-68
2022/06/16 05:45:57;;;;;;;59.05;55.65;;;;;;;24.00;48.65;96710.56;5074503;28;20193;-68
2022/06/16 05:48:22;;;;;;;56.90;53.75;;;;;;;23.58;49.58;96710.16;5073881;28;20181;-69
2022/06/16 05:50:48;;;;;;;53.72;50.78;;;;;;;23.29;50.18;96709.91;5074003;28;20181;-68
2022/06/16 05:53:14;;;;;;;52.03;49.10;;;;;;;23.93;48.39;96710.22;5074752;28;20220;-67
2022/06/16 05:55:40;;;;;;;176.75;168.23;;;;;;;24.59;44.81;96711.66;5074487;28;20250;-67
2022/06/16 05:58:05;;;;;;;217.05;206.73;;;;;;;24.91;43.22;96701.53;5074352;28;20185;-68
2022/06/16 06:00:31;;;;;;;229.32;218.20;;;;;;;24.53;46.63;96712.91;5073578;28;20255;-67
2022/06/16 06:02:58;;;;;;;345.58;328.73;;;;;;;24.49;47.17;96717.34;5055585;28;20196;-68
2022/06/16 06:05:26;;;;;;;238.95;227.10;;;;;;;24.10;48.14;96728.19;5073702;28;20299;-67
2022/06/16 06:18:48;;;;;;;239.27;227.75;;;;;;;23.91;42.24;96723.91;5073370;28;20609;-68
2022/06/16 06:21:14;;;;;;;220.25;209.48;;;;;;;24.28;41.86;96730.59;5069316;28;20190;-68
2022/06/16 06:23:39;;;;;;;307.33;292.33;;;;;;;24.59;40.75;96725.03;5063729;28;20189;-68
2022/06/16 06:26:05;;;;;;;85.53;80.93;;;;;;;24.28;45.77;96721.78;5073699;28;20195;-68
2022/06/16 06:28:30;;;;;;;189.52;180.15;;;;;;;24.57;41.69;96721.13;5073375;28;20186;-68
2022/06/16 06:30:56;;;;;;;37.97;35.65;;;;;;;25.06;46.04;96719.78;5073304;28;20181;-68
2022/06/16 06:33:21;;;;;;;198.38;188.35;;;;;;;25.07;46.43;96716.78;5071593;28;20201;-68
2022/06/16 06:35:46;;;;;;;178.90;170.05;;;;;;;25.25;45.35;96717.47;5073185;28;20181;-68
2022/06/16 06:38:12;;;;;;;318.13;302.75;;;;;;;26.07;38.56;96724.16;5072738;28;20232;-68
2022/06/16 06:40:38;;;;;;;239.77;228.30;;;;;;;26.37;37.74;96730.25;5073291;28;20221;-68
2022/06/16 06:43:04;;;;;;;344.58;326.75;;;;;;;26.59;40.90;96727.19;5054666;28;20250;-68
2022/06/16 06:45:30;;;;;;;190.02;180.38;;;;;;;27.03;37.40;96731.03;5073699;28;20185;-69
2022/06/16 06:47:56;;;;;;;156.10;148.43;;;;;;;26.39;37.13;96725.34;5073265;28;20197;-68
2022/06/16 06:50:26;;;;;;;126.40;120.05;;;;;;;27.23;36.18;96726.72;5073251;28;20184;-68
2022/06/16 06:52:52;;;;;;;205.15;195.20;;;;;;;27.54;36.88;96729.66;5054078;28;20212;-67
2022/06/16 06:55:19;;;;;;;261.00;248.18;;;;;;;28.04;36.20;96733.88;5072959;28;20287;-67
2022/06/16 06:57:45;;;;;;;217.02;206.27;;;;;;;27.66;35.45;96732.34;5072475;28;20236;-68
2022/06/16 07:00:15;;;;;;;247.98;235.65;;;;;;;27.18;37.14;96735.00;5072936;28;20246;-67
2022/06/16 07:02:41;;;;;;;478.02;452.60;;;;;;;26.31;41.74;96737.72;5072930;28;20586;-67
2022/06/16 07:05:07;;;;;;;336.35;318.63;;;;;;;26.51;41.05;96741.53;5072840;28;20642;-67
2022/06/16 07:07:34;;;;;;;81.07;76.75;;;;;;;26.20;42.96;96743.78;5072120;28;20181;-67
2022/06/16 07:10:00;;;;;;;348.52;332.23;;;;;;;25.39;44.54;96739.53;5072932;28;20212;-67
2022/06/16 07:12:25;;;;;;;302.80;288.35;;;;;;;24.93;45.39;96751.03;5072205;28;20185;-67
2022/06/16 07:14:51;;;;;;;474.27;450.25;;;;;;;25.35;45.38;96740.50;5072524;28;20227;-66
2022/06/16 07:17:20;;;;;;;846.28;796.63;;;;;;;24.77;46.68;96745.38;5071675;28;20599;-66
2022/06/16 07:19:45;;;;;;;21.98;20.70;;;;;;;24.61;47.15;96757.69;5072390;28;20193;-66
2022/06/16 07:22:11;;;;;;;264.80;252.10;;;;;;;25.32;46.18;96755.34;5052662;28;20196;-66
2022/06/16 07:24:36;;;;;;;406.15;385.08;;;;;;;25.80;44.63;96760.31;5072631;28;20216;-66
2022/06/16 07:27:02;;;;;;;610.70;577.58;;;;;;;25.68;46.01;96765.63;5072453;28;20200;-66
2022/06/16 07:29:28;;;;;;;203.93;193.70;;;;;;;25.15;44.19;96788.38;5072439;28;20181;-66
2022/06/16 07:31:54;;;;;;;307.65;292.30;;;;;;;24.19;45.29;96786.06;5072466;28;20188;-67
2022/06/16 07:34:19;;;;;;;92.50;87.85;;;;;;;24.93;43.65;96785.91;5070927;28;20702;-67
2022/06/16 07:36:44;;;;;;;231.23;219.90;;;;;;;24.95;43.14;96781.00;5071854;28;20181;-66
2022/06/16 07:39:10;;;;;;;111.22;105.65;;;;;;;25.12;43.57;96790.91;5071173;28;20232;-66
2022/06/16 07:41:36;;;;;;;148.95;141.32;;;;;;;25.11;44.37;96792.81;5071610;28;20203;-67
2022/06/16 07:44:08;;;;;;;184.00;174.63;;;;;;;25.16;43.97;96791.84;5071615;28;20276;-67
2022/06/16 07:46:35;;;;;;;158.75;150.80;;;;;;;24.61;44.97;96803.25;5072120;28;20172;-66
2022/06/16 07:49:00;;;;;;;148.20;140.52;;;;;;;25.18;43.88;96803.06;5071642;28;20216;-66
2022/06/16 07:51:26;;;;;;;142.38;135.20;;;;;;;25.59;42.59;96795.19;5071906;28;20213;-67
2022/06/16 07:53:51;;;;;;;172.20;163.57;;;;;;;25.97;42.33;96800.53;5071635;28;20197;-67
2022/06/16 07:56:17;;;;;;;163.95;155.48;;;;;;;25.56;42.59;96803.13;5071838;28;20514;-67
2022/06/16 07:58:43;;;;;;;146.35;138.75;;;;;;;25.18;43.63;96817.25;5071614;28;20576;-67
2022/06/16 08:01:09;;;;;;;119.30;113.38;;;;;;;25.55;42.53;96804.97;5072135;28;20242;-68
2022/06/16 08:03:35;;;;;;;234.32;222.75;;;;;;;25.97;41.60;96813.94;5071495;28;20269;-68
2022/06/16 08:06:04;;;;;;;246.57;234.27;;;;;;;25.33;42.60;96826.69;5067492;28;20540;-68
2022/06/16 08:08:30;;;;;;;336.83;319.85;;;;;;;25.53;43.04;96815.25;5070811;28;20201;-68
2022/06/16 08:10:55;;;;;;;243.55;231.18;;;;;;;25.90;41.25;96820.97;5069140;28;20197;-68
2022/06/16 08:13:22;;;;;;;158.73;150.35;;;;;;;25.65;41.93;96819.97;5070781;28;20182;-68
2022/06/16 08:15:48;;;;;;;211.57;200.98;;;;;;;26.12;41.70;96815.31;5070312;28;20185;-68
2022/06/16 08:18:16;;;;;;;273.40;259.35;;;;;;;25.69;42.87;96818.19;5071625;28;20189;-68
2022/06/16 08:20:42;;;;;;;370.00;350.45;;;;;;;25.22;43.83;96823.56;5065635;28;20577;-68
2022/06/16 08:23:09;;;;;;;592.95;560.78;;;;;;;25.47;43.48;96807.69;5053422;28;20186;-68
2022/06/16 08:25:35;;;;;;;590.88;557.53;;;;;;;25.66;43.58;96816.16;5071174;28;20209;-69
2022/06/16 08:28:03;;;;;;;571.75;539.85;;;;;;;25.81;43.12;96814.84;5071010;28;20272;-68
2022/06/16 08:30:30;;;;;;;436.13;412.05;;;;;;;26.49;43.22;96817.13;5055932;28;20588;-68
2022/06/16 08:32:56;;;;;;;559.80;529.17;;;;;;;27.20;41.85;96825.06;5075212;28;20185;-69
2022/06/16 08:35:22;;;;;;;334.77;317.15;;;;;;;26.91;41.46;96822.53;5084754;28;20263;-68
2022/06/16 08:37:47;;;;;;;151.63;143.77;;;;;;;26.73;41.14;96821.06;5074304;28;20197;-68
2022/06/16 08:40:14;;;;;;;112.32;106.50;;;;;;;27.08;41.00;96824.25;5075248;28;20278;-69
2022/06/16 08:42:50;;;;;;;340.10;322.17;;;;;;;27.17;40.20;96823.03;5037350;28;20189;-69
2022/06/16 08:45:27;;;;;;;460.23;435.05;;;;;;;27.07;40.32;96825.38;5074691;28;20246;-67
2022/06/16 08:47:53;;;;;;;579.50;548.03;;;;;;;26.85;40.63;96837.25;5057216;28;20636;-68
2022/06/16 08:50:44;;;;;;;579.10;547.45;;;;;;;26.86;40.72;96834.22;5074467;28;20304;-68
2022/06/16 08:53:30;;;;;;;518.65;491.35;;;;;;;26.81;40.71;96841.69;5075320;28;20617;-69
2022/06/16 08:56:04;;;;;;;500.20;473.42;;;;;;;26.59;40.45;96842.03;5075589;28;20182;-69
2022/06/16 08:58:30;;;;;;;386.80;366.25;;;;;;;26.58;39.87;96843.19;5075161;28;20189;-69
2022/06/16 09:01:00;;;;;;;514.30;487.45;;;;;;;26.25;40.44;96846.53;5075307;28;20196;-68
2022/06/16 09:03:44;;;;;;;306.88;290.70;;;;;;;26.61;38.38;96846.00;5067192;28;20181;-71
2022/06/16 09:06:24;;;;;;;272.45;258.38;;;;;;;27.02;37.33;96850.59;5073508;28;20271;-68
2022/06/16 09:09:12;;;;;;;240.63;228.55;;;;;;;26.80;38.03;96854.38;5075106;28;20181;-68
2022/06/16 09:12:02;;;;;;;211.93;201.38;;;;;;;26.95;37.58;96854.91;5059271;28;20177;-69
2022/06/16 09:17:40;;;;;;;204.25;193.80;;;;;;;26.66;38.72;96861.13;5070618;28;20208;-68
2022/06/16 09:20:21;;;;;;;211.45;200.95;;;;;;;27.00;37.22;96855.50;5068507;28;20276;-69
2022/06/16 09:22:58;;;;;;;199.30;189.57;;;;;;;27.16;37.71;96859.16;5073218;28;20285;-68
2022/06/16 09:25:51;;;;;;;200.30;190.57;;;;;;;27.45;37.44;96852.84;5075622;28;20172;-69
2022/06/16 09:28:22;;;;;;;183.85;174.68;;;;;;;27.71;37.23;96861.44;5074800;28;20521;-68
2022/06/16 09:30:52;;;;;;;186.30;176.95;;;;;;;27.42;36.31;96861.56;5075368;28;20177;-69
2022/06/16 09:33:26;;;;;;;203.93;193.70;;;;;;;26.71;37.70;96859.03;5073875;28;20189;-68
2022/06/16 09:36:01;;;;;;;101.78;96.53;;;;;;;27.14;37.13;96864.06;5074688;28;20690;-68
2022/06/16 09:38:31;;;;;;;153.25;145.68;;;;;;;27.48;37.63;96854.84;5071157;28;20229;-68
2022/06/16 09:41:02;;;;;;;170.02;160.48;;;;;;;27.10;38.75;96863.16;5056430;28;20235;-67
2022/06/16 09:43:42;;;;;;;144.40;137.07;;;;;;;26.54;39.72;96861.06;5073748;28;20229;-67
2022/06/16 09:46:23;;;;;;;277.23;262.92;;;;;;;26.71;39.11;96863.63;5074297;28;20230;-67
2022/06/16 09:48:59;;;;;;;247.00;234.20;;;;;;;27.25;38.65;96880.63;5074226;28;20185;-68
2022/06/16 09:51:34;;;;;;;413.60;392.10;;;;;;;26.92;40.16;96855.59;5056632;28;20638;-67
2022/06/16 09:54:10;;;;;;;505.63;479.20;;;;;;;27.26;39.52;96858.72;5074022;28;20681;-67
2022/06/16 09:56:49;;;;;;;655.97;620.53;;;;;;;27.42;39.74;96876.97;5074227;28;20531;-67
2022/06/16 09:59:20;;;;;;;351.40;332.95;;;;;;;27.17;39.25;96868.81;5073222;28;20560;-68
2022/06/16 10:01:54;;;;;;;450.35;426.35;;;;;;;27.15;39.43;96883.69;5067916;28;20189;-68
2022/06/16 10:04:19;;;;;;;338.38;320.35;;;;;;;26.83;39.47;96883.31;5073005;28;20628;-66
2022/06/16 10:07:09;;;;;;;615.45;583.17;;;;;;;26.70;40.34;96883.56;5064121;28;20222;-66
2022/06/16 10:09:52;;;;;;;559.30;530.38;;;;;;;26.62;40.22;96876.34;5066824;28;20232;-67
2022/06/16 10:12:38;;;;;;;567.85;537.45;;;;;;;26.74;40.89;96889.88;5073744;28;20227;-67
2022/06/16 10:15:19;;;;;;;245.02;232.68;;;;;;;25.93;42.61;96903.56;5072824;28;20650;-66
2022/06/16 10:17:46;;;;;;;42.88;40.38;;;;;;;26.08;41.96;96889.63;5070198;28;20614;-69
2022/06/16 10:20:14;;;;;;;85.40;80.80;;;;;;;26.29;42.19;96895.06;5072109;28;20196;-66
2022/06/16 10:22:48;;;;;;;282.35;267.90;;;;;;;26.50;42.23;96895.88;5073327;28;20181;-65
2022/06/16 10:25:25;;;;;;;269.10;255.13;;;;;;;26.64;41.60;96896.41;5072984;28;20572;-65
2022/06/16 10:28:20;;;;;;;309.45;293.27;;;;;;;26.91;41.82;96907.81;5055622;28;20184;-66
2022/06/16 10:30:46;;;;;;;205.35;194.85;;;;;;;26.55;41.02;96911.03;5075445;28;20181;-65
2022/06/16 10:33:19;;;;;;;111.05;105.38;;;;;;;26.48;41.84;96906.16;5087150;28;20271;-65
2022/06/16 10:35:55;;;;;;;162.18;153.77;;;;;;;26.57;40.57;96906.94;5088587;28;20177;-66
2022/06/16 10:38:42;;;;;;;118.57;112.65;;;;;;;26.91;40.43;96908.59;5073213;28;20244;-66
2022/06/16 10:41:25;;;;;;;62.75;59.47;;;;;;;26.83;41.06;96923.66;5073383;28;20180;-67
2022/06/16 10:43:53;;;;;;;77.07;72.85;;;;;;;26.57;41.52;96923.06;5072212;28;20541;-67
2022/06/16 10:46:22;;;;;;;70.43;66.75;;;;;;;26.89;41.13;96935.84;5072765;28;20555;-66
2022/06/16 10:48:54;;;;;;;77.10;72.95;;;;;;;27.17;40.41;96933.41;5072969;28;20321;-66
2022/06/16 10:51:22;;;;;;;81.78;77.38;;;;;;;26.79;41.48;96935.41;5067446;28;20174;-66
2022/06/16 10:54:11;;;;;;;131.52;124.95;;;;;;;26.48;41.40;96939.22;5071599;28;20259;-66
2022/06/16 10:56:39;;;;;;;70.18;66.43;;;;;;;26.20;41.62;96942.66;5072595;28;20181;-66
2022/06/16 10:59:18;;;;;;;82.93;78.57;;;;;;;26.48;41.69;96941.91;5054289;28;20673;-66
2022/06/16 11:01:53;;;;;;;178.02;168.60;;;;;;;26.53;42.02;96942.88;5077449;28;20195;-66
2022/06/16 11:04:21;;;;;;;141.68;134.43;;;;;;;26.61;41.62;96947.38;5072114;28;20183;-66
2022/06/16 11:06:56;;;;;;;153.88;145.85;;;;;;;26.29;41.89;96957.69;5053887;28;20200;-66
2022/06/16 11:09:25;;;;;;;168.57;159.70;;;;;;;26.31;41.98;96944.69;5041421;28;20283;-65
2022/06/16 11:11:58;;;;;;;131.80;124.82;;;;;;;26.12;41.48;96951.56;5072283;28;20211;-66
2022/06/16 11:14:46;;;;;;;146.32;138.77;;;;;;;26.40;41.54;96963.47;5072203;28;20197;-65
2022/06/16 11:17:20;;;;;;;293.23;277.83;;;;;;;26.54;41.99;96957.84;5067244;28;20173;-65
2022/06/16 11:20:00;;;;;;;278.13;263.52;;;;;;;26.49;42.33;96958.84;5070347;28;20185;-66
2022/06/16 11:22:38;;;;;;;157.38;149.00;;;;;;;26.38;41.38;96955.72;5052838;28;20271;-66
2022/06/16 11:25:21;;;;;;;118.25;111.95;;;;;;;26.52;41.06;96968.97;5071577;28;20176;-65
2022/06/16 11:27:59;;;;;;;104.10;98.45;;;;;;;26.53;41.02;96964.38;5069024;28;20219;-66
2022/06/16 11:30:38;;;;;;;89.75;85.07;;;;;;;26.65;40.86;96957.16;5071776;28;20526;-66
2022/06/16 11:33:06;;;;;;;119.63;113.40;;;;;;;26.74;40.58;96962.50;5063627;28;20203;-66
2022/06/16 11:35:54;;;;;;;467.45;441.48;;;;;;;26.78;39.64;96966.91;5071473;28;20295;-66
2022/06/16 11:38:58;;;;;;;269.33;255.68;;;;;;;26.58;40.73;96970.34;5070131;28;20240;-67
2022/06/16 11:41:25;;;;;;;49.33;46.55;;;;;;;26.76;41.06;96971.81;5019291;28;20206;-66